Terminal Aerodrome Forecast
Issued by NWS Charleston, WV

Current Version | Previous Version | Text Only | Print | Product List | Glossary Off
Versions: 1 2 3 4 5 6 7 8 9 10 11 12 13 14 15 16 17 18 19 20 21 22 23 24

000
FTUS41 KRLX 270908 AAA
TAFBKW
TAF AMD
KBKW 270908Z 2709/2806 21004KT P6SM SCT020 BKN050
     FM271200 VRB03KT P6SM BKN015
     FM271600 24006KT P6SM BKN025
     FM271800 25005KT P6SM BKN035
     FM272300 22004KT P6SM VCTS BKN035CB
     FM280200 VRB03KT P6SM SCT035=

USA.gov is the U.S. government's official web portal to all federal, state and local government web resources and services.